sensor_id;sensor_type;location;lat;lon;timestamp;P1;P2;P0
79689;PMS5003;69156;55.932;-3.238;2023-04-15T00:02:04;6;6;
79689;PMS5003;69156;55.932;-3.238;2023-04-15T00:04:26;5;4;
79689;PMS5003;69156;55.932;-3.238;2023-04-15T00:06:52;5;5;
79689;PMS5003;69156;55.932;-3.238;2023-04-15T00:09:17;3;3;
79689;PMS5003;69156;55.932;-3.238;2023-04-15T00:11:43;6;5;
79689;PMS5003;69156;55.932;-3.238;2023-04-15T00:14:09;8;6;
79689;PMS5003;69156;55.932;-3.238;2023-04-15T00:16:35;5;5;
79689;PMS5003;69156;55.932;-3.238;2023-04-15T00:19:00;3;3;
79689;PMS5003;69156;55.932;-3.238;2023-04-15T00:21:26;3;3;
79689;PMS5003;69156;55.932;-3.238;2023-04-15T00:23:52;3;3;
79689;PMS5003;69156;55.932;-3.238;2023-04-15T00:26:17;5;4;
79689;PMS5003;69156;55.932;-3.238;2023-04-15T00:28:43;5;5;
79689;PMS5003;69156;55.932;-3.238;2023-04-15T00:31:09;4;4;
79689;PMS5003;69156;55.932;-3.238;2023-04-15T00:33:34;5;5;
79689;PMS5003;69156;55.932;-3.238;2023-04-15T00:35:59;7;5;
79689;PMS5003;69156;55.932;-3.238;2023-04-15T00:38:24;8;7;
79689;PMS5003;69156;55.932;-3.238;2023-04-15T00:40:51;5;5;
79689;PMS5003;69156;55.932;-3.238;2023-04-15T00:43:16;4;4;
79689;PMS5003;69156;55.932;-3.238;2023-04-15T00:45:42;4;4;
79689;PMS5003;69156;55.932;-3.238;2023-04-15T00:48:07;4;4;
79689;PMS5003;69156;55.932;-3.238;2023-04-15T00:50:32;5;5;
79689;PMS5003;69156;55.932;-3.238;2023-04-15T00:52:57;5;5;
79689;PMS5003;69156;55.932;-3.238;2023-04-15T00:55:22;3;3;
79689;PMS5003;69156;55.932;-3.238;2023-04-15T00:57:47;4;4;
79689;PMS5003;69156;55.932;-3.238;2023-04-15T01:00:13;3;3;
79689;PMS5003;69156;55.932;-3.238;2023-04-15T01:02:38;7;5;
79689;PMS5003;69156;55.932;-3.238;2023-04-15T01:05:04;5;4;
79689;PMS5003;69156;55.932;-3.238;2023-04-15T01:07:29;3;3;
79689;PMS5003;69156;55.932;-3.238;2023-04-15T01:09:54;4;4;
79689;PMS5003;69156;55.932;-3.238;2023-04-15T01:12:21;4;4;
79689;PMS5003;69156;55.932;-3.238;2023-04-15T01:14:46;5;5;
79689;PMS5003;69156;55.932;-3.238;2023-04-15T01:17:11;4;4;
79689;PMS5003;69156;55.932;-3.238;2023-04-15T01:19:36;5;5;
79689;PMS5003;69156;55.932;-3.238;2023-04-15T01:22:02;5;5;
79689;PMS5003;69156;55.932;-3.238;2023-04-15T01:24:28;4;4;
79689;PMS5003;69156;55.932;-3.238;2023-04-15T01:26:54;3;3;
79689;PMS5003;69156;55.932;-3.238;2023-04-15T01:29:19;4;4;
79689;PMS5003;69156;55.932;-3.238;2023-04-15T01:31:50;3;3;
79689;PMS5003;69156;55.932;-3.238;2023-04-15T01:34:10;5;4;
79689;PMS5003;69156;55.932;-3.238;2023-04-15T01:36:36;4;4;
79689;PMS5003;69156;55.932;-3.238;2023-04-15T01:39:02;3;3;
79689;PMS5003;69156;55.932;-3.238;2023-04-15T01:41:28;2;2;
79689;PMS5003;69156;55.932;-3.238;2023-04-15T01:43:53;4;4;
79689;PMS5003;69156;55.932;-3.238;2023-04-15T01:46:19;8;8;
79689;PMS5003;69156;55.932;-3.238;2023-04-15T01:48:44;7;7;
79689;PMS5003;69156;55.932;-3.238;2023-04-15T01:51:09;3;3;
79689;PMS5003;69156;55.932;-3.238;2023-04-15T01:53:34;5;5;
79689;PMS5003;69156;55.932;-3.238;2023-04-15T01:56:00;5;5;
79689;PMS5003;69156;55.932;-3.238;2023-04-15T01:58:25;5;5;
79689;PMS5003;69156;55.932;-3.238;2023-04-15T02:00:51;4;3;
79689;PMS5003;69156;55.932;-3.238;2023-04-15T02:03:17;3;3;
79689;PMS5003;69156;55.932;-3.238;2023-04-15T02:05:42;4;4;
79689;PMS5003;69156;55.932;-3.238;2023-04-15T02:08:08;4;4;
79689;PMS5003;69156;55.932;-3.238;2023-04-15T02:10:34;4;4;
79689;PMS5003;69156;55.932;-3.238;2023-04-15T02:12:59;3;3;
79689;PMS5003;69156;55.932;-3.238;2023-04-15T02:15:25;3;3;
79689;PMS5003;69156;55.932;-3.238;2023-04-15T02:17:50;3;3;
79689;PMS5003;69156;55.932;-3.238;2023-04-15T02:20:15;4;4;
79689;PMS5003;69156;55.932;-3.238;2023-04-15T02:22:41;4;4;
79689;PMS5003;69156;55.932;-3.238;2023-04-15T02:25:07;5;5;
79689;PMS5003;69156;55.932;-3.238;2023-04-15T02:27:32;4;4;
79689;PMS5003;69156;55.932;-3.238;2023-04-15T02:29:57;4;4;
79689;PMS5003;69156;55.932;-3.238;2023-04-15T02:32:22;5;5;
79689;PMS5003;69156;55.932;-3.238;2023-04-15T02:34:47;3;3;
79689;PMS5003;69156;55.932;-3.238;2023-04-15T02:37:13;3;3;
79689;PMS5003;69156;55.932;-3.238;2023-04-15T02:39:38;3;3;
79689;PMS5003;69156;55.932;-3.238;2023-04-15T02:42:03;4;4;
79689;PMS5003;69156;55.932;-3.238;2023-04-15T02:44:29;6;6;
79689;PMS5003;69156;55.932;-3.238;2023-04-15T02:46:54;4;3;
79689;PMS5003;69156;55.932;-3.238;2023-04-15T02:49:20;4;4;
79689;PMS5003;69156;55.932;-3.238;2023-04-15T02:51:45;4;4;
79689;PMS5003;69156;55.932;-3.238;2023-04-15T02:54:10;7;5;
79689;PMS5003;69156;55.932;-3.238;2023-04-15T02:56:36;4;4;
79689;PMS5003;69156;55.932;-3.238;2023-04-15T02:59:02;4;3;
79689;PMS5003;69156;55.932;-3.238;2023-04-15T03:01:27;4;4;
79689;PMS5003;69156;55.932;-3.238;2023-04-15T03:03:53;2;2;
79689;PMS5003;69156;55.932;-3.238;2023-04-15T03:06:18;3;3;
79689;PMS5003;69156;55.932;-3.238;2023-04-15T03:08:44;3;3;
79689;PMS5003;69156;55.932;-3.238;2023-04-15T03:11:10;3;3;
79689;PMS5003;69156;55.932;-3.238;2023-04-15T03:13:35;3;3;
79689;PMS5003;69156;55.932;-3.238;2023-04-15T03:16:00;3;3;
79689;PMS5003;69156;55.932;-3.238;2023-04-15T03:18:25;6;4;
79689;PMS5003;69156;55.932;-3.238;2023-04-15T03:20:51;3;3;
79689;PMS5003;69156;55.932;-3.238;2023-04-15T03:23:16;4;4;
79689;PMS5003;69156;55.932;-3.238;2023-04-15T03:25:43;4;4;
79689;PMS5003;69156;55.932;-3.238;2023-04-15T03:28:08;3;3;
79689;PMS5003;69156;55.932;-3.238;2023-04-15T03:30:34;4;4;
79689;PMS5003;69156;55.932;-3.238;2023-04-15T03:32:59;4;4;
79689;PMS5003;69156;55.932;-3.238;2023-04-15T03:35:24;4;4;
79689;PMS5003;69156;55.932;-3.238;2023-04-15T03:37:50;6;6;
79689;PMS5003;69156;55.932;-3.238;2023-04-15T03:40:15;6;6;
79689;PMS5003;69156;55.932;-3.238;2023-04-15T03:42:40;4;4;
79689;PMS5003;69156;55.932;-3.238;2023-04-15T03:45:06;4;4;
79689;PMS5003;69156;55.932;-3.238;2023-04-15T03:47:32;4;4;
79689;PMS5003;69156;55.932;-3.238;2023-04-15T03:49:57;6;6;
79689;PMS5003;69156;55.932;-3.238;2023-04-15T03:52:22;7;7;
79689;PMS5003;69156;55.932;-3.238;2023-04-15T03:54:47;8;8;
79689;PMS5003;69156;55.932;-3.238;2023-04-15T03:57:13;7;7;
79689;PMS5003;69156;55.932;-3.238;2023-04-15T03:59:38;8;8;
79689;PMS5003;69156;55.932;-3.238;2023-04-15T04:02:03;8;7;
79689;PMS5003;69156;55.932;-3.238;2023-04-15T04:04:29;9;9;
79689;PMS5003;69156;55.932;-3.238;2023-04-15T04:06:55;9;9;
79689;PMS5003;69156;55.932;-3.238;2023-04-15T04:09:21;10;10;
79689;PMS5003;69156;55.932;-3.238;2023-04-15T04:11:46;10;10;
79689;PMS5003;69156;55.932;-3.238;2023-04-15T04:14:11;10;10;
79689;PMS5003;69156;55.932;-3.238;2023-04-15T04:16:36;9;9;
79689;PMS5003;69156;55.932;-3.238;2023-04-15T04:19:02;9;9;
79689;PMS5003;69156;55.932;-3.238;2023-04-15T04:21:27;12;10;
79689;PMS5003;69156;55.932;-3.238;2023-04-15T04:23:52;12;12;
79689;PMS5003;69156;55.932;-3.238;2023-04-15T04:26:17;9;9;
79689;PMS5003;69156;55.932;-3.238;2023-04-15T04:28:43;10;10;
79689;PMS5003;69156;55.932;-3.238;2023-04-15T04:31:09;10;10;
79689;PMS5003;69156;55.932;-3.238;2023-04-15T04:33:35;10;9;
79689;PMS5003;69156;55.932;-3.238;2023-04-15T04:36:00;9;9;
79689;PMS5003;69156;55.932;-3.238;2023-04-15T04:38:26;9;9;
79689;PMS5003;69156;55.932;-3.238;2023-04-15T04:40:52;10;10;
79689;PMS5003;69156;55.932;-3.238;2023-04-15T04:43:17;10;10;
79689;PMS5003;69156;55.932;-3.238;2023-04-15T04:45:43;13;12;
79689;PMS5003;69156;55.932;-3.238;2023-04-15T04:48:09;10;10;
79689;PMS5003;69156;55.932;-3.238;2023-04-15T04:50:35;10;10;
79689;PMS5003;69156;55.932;-3.238;2023-04-15T04:53:00;13;12;
79689;PMS5003;69156;55.932;-3.238;2023-04-15T04:55:26;10;9;
79689;PMS5003;69156;55.932;-3.238;2023-04-15T04:57:52;10;10;
79689;PMS5003;69156;55.932;-3.238;2023-04-15T05:00:17;13;13;
79689;PMS5003;69156;55.932;-3.238;2023-04-15T05:02:42;15;15;
79689;PMS5003;69156;55.932;-3.238;2023-04-15T05:05:08;13;13;
79689;PMS5003;69156;55.932;-3.238;2023-04-15T05:07:34;9;9;
79689;PMS5003;69156;55.932;-3.238;2023-04-15T05:09:59;16;16;
79689;PMS5003;69156;55.932;-3.238;2023-04-15T05:12:25;14;12;
79689;PMS5003;69156;55.932;-3.238;2023-04-15T05:14:50;10;10;
79689;PMS5003;69156;55.932;-3.238;2023-04-15T05:17:16;10;9;
79689;PMS5003;69156;55.932;-3.238;2023-04-15T05:19:41;14;14;
79689;PMS5003;69156;55.932;-3.238;2023-04-15T05:22:07;14;13;
79689;PMS5003;69156;55.932;-3.238;2023-04-15T05:24:32;15;14;
79689;PMS5003;69156;55.932;-3.238;2023-04-15T05:26:58;13;12;
79689;PMS5003;69156;55.932;-3.238;2023-04-15T05:29:24;14;13;
79689;PMS5003;69156;55.932;-3.238;2023-04-15T05:31:49;14;13;
79689;PMS5003;69156;55.932;-3.238;2023-04-15T05:34:15;10;10;
79689;PMS5003;69156;55.932;-3.238;2023-04-15T05:36:40;14;13;
79689;PMS5003;69156;55.932;-3.238;2023-04-15T05:39:06;14;14;
79689;PMS5003;69156;55.932;-3.238;2023-04-15T05:41:32;13;13;
79689;PMS5003;69156;55.932;-3.238;2023-04-15T05:43:57;14;14;
79689;PMS5003;69156;55.932;-3.238;2023-04-15T05:46:22;13;12;
79689;PMS5003;69156;55.932;-3.238;2023-04-15T05:48:48;20;19;
79689;PMS5003;69156;55.932;-3.238;2023-04-15T05:51:13;13;13;
79689;PMS5003;69156;55.932;-3.238;2023-04-15T05:53:39;14;14;
79689;PMS5003;69156;55.932;-3.238;2023-04-15T05:56:04;13;12;
79689;PMS5003;69156;55.932;-3.238;2023-04-15T05:58:30;13;12;
79689;PMS5003;69156;55.932;-3.238;2023-04-15T06:00:55;16;14;
79689;PMS5003;69156;55.932;-3.238;2023-04-15T06:03:21;13;12;
79689;PMS5003;69156;55.932;-3.238;2023-04-15T06:05:46;15;15;
79689;PMS5003;69156;55.932;-3.238;2023-04-15T06:08:12;12;10;
79689;PMS5003;69156;55.932;-3.238;2023-04-15T06:10:38;18;16;
79689;PMS5003;69156;55.932;-3.238;2023-04-15T06:13:04;18;18;
79689;PMS5003;69156;55.932;-3.238;2023-04-15T06:15:29;21;19;
79689;PMS5003;69156;55.932;-3.238;2023-04-15T06:17:55;19;18;
79689;PMS5003;69156;55.932;-3.238;2023-04-15T06:20:21;20;20;
79689;PMS5003;69156;55.932;-3.238;2023-04-15T06:22:46;15;15;
79689;PMS5003;69156;55.932;-3.238;2023-04-15T06:25:12;16;16;
79689;PMS5003;69156;55.932;-3.238;2023-04-15T06:27:37;19;18;
79689;PMS5003;69156;55.932;-3.238;2023-04-15T06:30:02;15;15;
79689;PMS5003;69156;55.932;-3.238;2023-04-15T06:32:28;19;19;
79689;PMS5003;69156;55.932;-3.238;2023-04-15T06:34:54;18;16;
79689;PMS5003;69156;55.932;-3.238;2023-04-15T06:37:19;15;15;
79689;PMS5003;69156;55.932;-3.238;2023-04-15T06:39:45;17;17;
79689;PMS5003;69156;55.932;-3.238;2023-04-15T06:42:10;19;19;
79689;PMS5003;69156;55.932;-3.238;2023-04-15T06:44:36;16;16;
79689;PMS5003;69156;55.932;-3.238;2023-04-15T06:47:01;17;17;
79689;PMS5003;69156;55.932;-3.238;2023-04-15T06:49:27;19;17;
79689;PMS5003;69156;55.932;-3.238;2023-04-15T06:51:52;17;17;
79689;PMS5003;69156;55.932;-3.238;2023-04-15T06:54:18;19;17;
79689;PMS5003;69156;55.932;-3.238;2023-04-15T06:56:43;16;16;
79689;PMS5003;69156;55.932;-3.238;2023-04-15T06:59:08;18;18;
79689;PMS5003;69156;55.932;-3.238;2023-04-15T07:01:34;23;23;
79689;PMS5003;69156;55.932;-3.238;2023-04-15T07:04:00;17;16;
79689;PMS5003;69156;55.932;-3.238;2023-04-15T07:06:25;21;19;
79689;PMS5003;69156;55.932;-3.238;2023-04-15T07:08:50;23;21;
79689;PMS5003;69156;55.932;-3.238;2023-04-15T07:11:15;22;19;
79689;PMS5003;69156;55.932;-3.238;2023-04-15T07:13:40;19;18;
79689;PMS5003;69156;55.932;-3.238;2023-04-15T07:16:05;20;20;
79689;PMS5003;69156;55.932;-3.238;2023-04-15T07:18:31;17;17;
79689;PMS5003;69156;55.932;-3.238;2023-04-15T07:20:56;18;17;
79689;PMS5003;69156;55.932;-3.238;2023-04-15T07:23:22;19;19;
79689;PMS5003;69156;55.932;-3.238;2023-04-15T07:25:48;19;19;
79689;PMS5003;69156;55.932;-3.238;2023-04-15T07:28:13;22;21;
79689;PMS5003;69156;55.932;-3.238;2023-04-15T07:30:39;18;18;
79689;PMS5003;69156;55.932;-3.238;2023-04-15T07:33:04;23;22;
79689;PMS5003;69156;55.932;-3.238;2023-04-15T07:35:29;21;21;
79689;PMS5003;69156;55.932;-3.238;2023-04-15T07:37:55;19;19;
79689;PMS5003;69156;55.932;-3.238;2023-04-15T07:40:20;31;29;
79689;PMS5003;69156;55.932;-3.238;2023-04-15T07:42:46;25;23;
79689;PMS5003;69156;55.932;-3.238;2023-04-15T07:45:11;23;23;
79689;PMS5003;69156;55.932;-3.238;2023-04-15T07:47:37;23;22;
79689;PMS5003;69156;55.932;-3.238;2023-04-15T07:50:02;23;22;
79689;PMS5003;69156;55.932;-3.238;2023-04-15T07:52:28;22;20;
79689;PMS5003;69156;55.932;-3.238;2023-04-15T07:54:53;20;19;
79689;PMS5003;69156;55.932;-3.238;2023-04-15T07:57:18;23;23;
79689;PMS5003;69156;55.932;-3.238;2023-04-15T07:59:44;22;21;
79689;PMS5003;69156;55.932;-3.238;2023-04-15T08:02:10;23;22;
79689;PMS5003;69156;55.932;-3.238;2023-04-15T08:04:35;20;20;
79689;PMS5003;69156;55.932;-3.238;2023-04-15T08:07:00;31;27;
79689;PMS5003;69156;55.932;-3.238;2023-04-15T08:09:26;25;23;
79689;PMS5003;69156;55.932;-3.238;2023-04-15T08:11:51;25;23;
79689;PMS5003;69156;55.932;-3.238;2023-04-15T08:14:17;19;19;
79689;PMS5003;69156;55.932;-3.238;2023-04-15T08:16:42;25;23;
79689;PMS5003;69156;55.932;-3.238;2023-04-15T08:19:08;27;26;
79689;PMS5003;69156;55.932;-3.238;2023-04-15T08:21:34;20;20;
79689;PMS5003;69156;55.932;-3.238;2023-04-15T08:23:59;19;19;
79689;PMS5003;69156;55.932;-3.238;2023-04-15T08:26:25;20;18;
79689;PMS5003;69156;55.932;-3.238;2023-04-15T08:28:50;20;17;
79689;PMS5003;69156;55.932;-3.238;2023-04-15T08:31:16;18;18;
79689;PMS5003;69156;55.932;-3.238;2023-04-15T08:33:41;23;21;
79689;PMS5003;69156;55.932;-3.238;2023-04-15T08:36:07;21;20;
79689;PMS5003;69156;55.932;-3.238;2023-04-15T08:38:32;21;21;
79689;PMS5003;69156;55.932;-3.238;2023-04-15T08:41:00;18;16;
79689;PMS5003;69156;55.932;-3.238;2023-04-15T08:43:23;18;18;
79689;PMS5003;69156;55.932;-3.238;2023-04-15T08:45:49;22;20;
79689;PMS5003;69156;55.932;-3.238;2023-04-15T08:48:15;23;21;
79689;PMS5003;69156;55.932;-3.238;2023-04-15T08:50:39;15;15;
79689;PMS5003;69156;55.932;-3.238;2023-04-15T08:53:05;20;17;
79689;PMS5003;69156;55.932;-3.238;2023-04-15T08:55:32;15;15;
79689;PMS5003;69156;55.932;-3.238;2023-04-15T08:57:57;16;16;
79689;PMS5003;69156;55.932;-3.238;2023-04-15T09:00:22;20;18;
79689;PMS5003;69156;55.932;-3.238;2023-04-15T09:02:48;17;16;
79689;PMS5003;69156;55.932;-3.238;2023-04-15T09:05:13;14;14;
79689;PMS5003;69156;55.932;-3.238;2023-04-15T09:07:38;17;16;
79689;PMS5003;69156;55.932;-3.238;2023-04-15T09:10:04;6;6;
79689;PMS5003;69156;55.932;-3.238;2023-04-15T09:12:29;8;8;
79689;PMS5003;69156;55.932;-3.238;2023-04-15T09:14:55;8;8;
79689;PMS5003;69156;55.932;-3.238;2023-04-15T09:17:20;6;6;
79689;PMS5003;69156;55.932;-3.238;2023-04-15T09:19:46;3;3;
79689;PMS5003;69156;55.932;-3.238;2023-04-15T09:22:11;3;3;
79689;PMS5003;69156;55.932;-3.238;2023-04-15T09:24:37;4;4;
79689;PMS5003;69156;55.932;-3.238;2023-04-15T09:27:01;3;3;
79689;PMS5003;69156;55.932;-3.238;2023-04-15T09:29:27;5;4;
79689;PMS5003;69156;55.932;-3.238;2023-04-15T09:31:52;5;5;
79689;PMS5003;69156;55.932;-3.238;2023-04-15T09:34:18;4;4;
79689;PMS5003;69156;55.932;-3.238;2023-04-15T09:36:52;4;4;
79689;PMS5003;69156;55.932;-3.238;2023-04-15T09:39:09;4;4;
79689;PMS5003;69156;55.932;-3.238;2023-04-15T09:41:35;3;3;
79689;PMS5003;69156;55.932;-3.238;2023-04-15T09:44:00;4;4;
79689;PMS5003;69156;55.932;-3.238;2023-04-15T09:46:42;4;3;
79689;PMS5003;69156;55.932;-3.238;2023-04-15T09:49:05;3;2;
79689;PMS5003;69156;55.932;-3.238;2023-04-15T09:51:17;3;3;
79689;PMS5003;69156;55.932;-3.238;2023-04-15T09:53:42;4;4;
79689;PMS5003;69156;55.932;-3.238;2023-04-15T09:56:07;4;4;
79689;PMS5003;69156;55.932;-3.238;2023-04-15T09:58:33;3;3;
79689;PMS5003;69156;55.932;-3.238;2023-04-15T10:00:58;5;4;
79689;PMS5003;69156;55.932;-3.238;2023-04-15T10:03:24;4;4;
79689;PMS5003;69156;55.932;-3.238;2023-04-15T10:05:49;3;3;
79689;PMS5003;69156;55.932;-3.238;2023-04-15T10:08:15;10;10;
79689;PMS5003;69156;55.932;-3.238;2023-04-15T10:10:40;14;14;
79689;PMS5003;69156;55.932;-3.238;2023-04-15T10:13:06;19;17;
79689;PMS5003;69156;55.932;-3.238;2023-04-15T10:15:31;14;14;
79689;PMS5003;69156;55.932;-3.238;2023-04-15T10:17:57;12;12;
79689;PMS5003;69156;55.932;-3.238;2023-04-15T10:20:22;10;9;
79689;PMS5003;69156;55.932;-3.238;2023-04-15T10:22:48;8;7;
79689;PMS5003;69156;55.932;-3.238;2023-04-15T10:25:14;9;8;
79689;PMS5003;69156;55.932;-3.238;2023-04-15T10:27:39;6;6;
79689;PMS5003;69156;55.932;-3.238;2023-04-15T10:30:05;7;7;
79689;PMS5003;69156;55.932;-3.238;2023-04-15T10:32:29;9;9;
79689;PMS5003;69156;55.932;-3.238;2023-04-15T10:34:55;7;7;
79689;PMS5003;69156;55.932;-3.238;2023-04-15T10:37:21;6;6;
79689;PMS5003;69156;55.932;-3.238;2023-04-15T10:39:46;6;6;
79689;PMS5003;69156;55.932;-3.238;2023-04-15T10:42:13;5;5;
79689;PMS5003;69156;55.932;-3.238;2023-04-15T10:44:37;5;5;
79689;PMS5003;69156;55.932;-3.238;2023-04-15T10:47:05;6;6;
79689;PMS5003;69156;55.932;-3.238;2023-04-15T10:49:28;7;7;
79689;PMS5003;69156;55.932;-3.238;2023-04-15T10:51:56;6;6;
79689;PMS5003;69156;55.932;-3.238;2023-04-15T10:54:29;7;7;
79689;PMS5003;69156;55.932;-3.238;2023-04-15T10:56:45;4;4;
79689;PMS5003;69156;55.932;-3.238;2023-04-15T10:59:11;6;5;
79689;PMS5003;69156;55.932;-3.238;2023-04-15T11:01:53;7;6;
79689;PMS5003;69156;55.932;-3.238;2023-04-15T11:04:02;6;6;
79689;PMS5003;69156;55.932;-3.238;2023-04-15T11:06:42;7;7;
79689;PMS5003;69156;55.932;-3.238;2023-04-15T11:08:54;7;7;
79689;PMS5003;69156;55.932;-3.238;2023-04-15T11:11:19;7;7;
79689;PMS5003;69156;55.932;-3.238;2023-04-15T11:13:46;6;6;
79689;PMS5003;69156;55.932;-3.238;2023-04-15T11:16:09;6;6;
79689;PMS5003;69156;55.932;-3.238;2023-04-15T11:18:35;5;5;
79689;PMS5003;69156;55.932;-3.238;2023-04-15T11:21:02;8;8;
79689;PMS5003;69156;55.932;-3.238;2023-04-15T11:23:27;7;7;
79689;PMS5003;69156;55.932;-3.238;2023-04-15T11:25:53;7;6;
79689;PMS5003;69156;55.932;-3.238;2023-04-15T11:28:17;9;9;
79689;PMS5003;69156;55.932;-3.238;2023-04-15T11:30:43;6;6;
79689;PMS5003;69156;55.932;-3.238;2023-04-15T11:33:10;8;8;
79689;PMS5003;69156;55.932;-3.238;2023-04-15T11:35:33;7;6;
79689;PMS5003;69156;55.932;-3.238;2023-04-15T11:38:01;6;6;
79689;PMS5003;69156;55.932;-3.238;2023-04-15T11:40:25;7;7;
79689;PMS5003;69156;55.932;-3.238;2023-04-15T11:43:02;7;7;
79689;PMS5003;69156;55.932;-3.238;2023-04-15T11:45:15;11;10;
79689;PMS5003;69156;55.932;-3.238;2023-04-15T11:47:40;8;8;
79689;PMS5003;69156;55.932;-3.238;2023-04-15T11:50:15;7;7;
79689;PMS5003;69156;55.932;-3.238;2023-04-15T11:52:31;8;8;
79689;PMS5003;69156;55.932;-3.238;2023-04-15T11:55:01;9;9;
79689;PMS5003;69156;55.932;-3.238;2023-04-15T11:57:21;7;7;
79689;PMS5003;69156;55.932;-3.238;2023-04-15T11:59:47;11;11;
79689;PMS5003;69156;55.932;-3.238;2023-04-15T12:02:13;9;9;
79689;PMS5003;69156;55.932;-3.238;2023-04-15T12:04:38;8;8;
79689;PMS5003;69156;55.932;-3.238;2023-04-15T12:07:03;12;9;
79689;PMS5003;69156;55.932;-3.238;2023-04-15T12:09:29;7;7;
79689;PMS5003;69156;55.932;-3.238;2023-04-15T12:11:56;8;8;
79689;PMS5003;69156;55.932;-3.238;2023-04-15T12:14:23;7;7;
79689;PMS5003;69156;55.932;-3.238;2023-04-15T12:16:47;10;10;
79689;PMS5003;69156;55.932;-3.238;2023-04-15T12:19:12;9;7;
79689;PMS5003;69156;55.932;-3.238;2023-04-15T12:21:38;7;7;
79689;PMS5003;69156;55.932;-3.238;2023-04-15T12:24:03;7;7;
79689;PMS5003;69156;55.932;-3.238;2023-04-15T12:26:30;8;8;
79689;PMS5003;69156;55.932;-3.238;2023-04-15T12:28:54;8;8;
79689;PMS5003;69156;55.932;-3.238;2023-04-15T12:31:19;6;6;
79689;PMS5003;69156;55.932;-3.238;2023-04-15T12:33:46;8;8;
79689;PMS5003;69156;55.932;-3.238;2023-04-15T12:36:09;9;9;
79689;PMS5003;69156;55.932;-3.238;2023-04-15T12:38:35;10;10;
79689;PMS5003;69156;55.932;-3.238;2023-04-15T12:41:01;8;8;
79689;PMS5003;69156;55.932;-3.238;2023-04-15T12:43:27;8;8;
79689;PMS5003;69156;55.932;-3.238;2023-04-15T12:45:52;8;8;
79689;PMS5003;69156;55.932;-3.238;2023-04-15T12:48:17;9;9;
79689;PMS5003;69156;55.932;-3.238;2023-04-15T12:50:42;8;8;
79689;PMS5003;69156;55.932;-3.238;2023-04-15T12:53:08;11;11;
79689;PMS5003;69156;55.932;-3.238;2023-04-15T12:55:33;7;7;
79689;PMS5003;69156;55.932;-3.238;2023-04-15T12:57:58;7;7;
79689;PMS5003;69156;55.932;-3.238;2023-04-15T13:00:24;10;10;
79689;PMS5003;69156;55.932;-3.238;2023-04-15T13:02:49;8;7;
79689;PMS5003;69156;55.932;-3.238;2023-04-15T13:05:15;7;6;
79689;PMS5003;69156;55.932;-3.238;2023-04-15T13:07:41;8;8;
79689;PMS5003;69156;55.932;-3.238;2023-04-15T13:10:06;11;10;
79689;PMS5003;69156;55.932;-3.238;2023-04-15T13:12:36;13;12;
79689;PMS5003;69156;55.932;-3.238;2023-04-15T13:14:57;9;9;
79689;PMS5003;69156;55.932;-3.238;2023-04-15T13:17:22;10;10;
79689;PMS5003;69156;55.932;-3.238;2023-04-15T13:19:48;10;10;
79689;PMS5003;69156;55.932;-3.238;2023-04-15T13:22:13;11;11;
79689;PMS5003;69156;55.932;-3.238;2023-04-15T13:24:38;9;9;
79689;PMS5003;69156;55.932;-3.238;2023-04-15T13:27:03;10;10;
79689;PMS5003;69156;55.932;-3.238;2023-04-15T13:29:29;7;7;
79689;PMS5003;69156;55.932;-3.238;2023-04-15T13:31:55;12;12;
79689;PMS5003;69156;55.932;-3.238;2023-04-15T13:34:21;14;12;
79689;PMS5003;69156;55.932;-3.238;2023-04-15T13:36:47;12;12;
79689;PMS5003;69156;55.932;-3.238;2023-04-15T13:39:12;10;10;
79689;PMS5003;69156;55.932;-3.238;2023-04-15T13:41:38;10;10;
79689;PMS5003;69156;55.932;-3.238;2023-04-15T13:44:03;10;10;
79689;PMS5003;69156;55.932;-3.238;2023-04-15T13:46:29;13;11;
79689;PMS5003;69156;55.932;-3.238;2023-04-15T13:48:55;10;10;
79689;PMS5003;69156;55.932;-3.238;2023-04-15T13:51:20;9;9;
79689;PMS5003;69156;55.932;-3.238;2023-04-15T13:53:45;11;10;
79689;PMS5003;69156;55.932;-3.238;2023-04-15T13:56:11;10;10;
79689;PMS5003;69156;55.932;-3.238;2023-04-15T13:58:37;9;9;
79689;PMS5003;69156;55.932;-3.238;2023-04-15T14:01:02;10;10;
79689;PMS5003;69156;55.932;-3.238;2023-04-15T14:03:28;10;10;
79689;PMS5003;69156;55.932;-3.238;2023-04-15T14:05:53;12;11;
79689;PMS5003;69156;55.932;-3.238;2023-04-15T14:08:18;11;11;
79689;PMS5003;69156;55.932;-3.238;2023-04-15T14:10:44;9;9;
79689;PMS5003;69156;55.932;-3.238;2023-04-15T14:13:09;10;10;
79689;PMS5003;69156;55.932;-3.238;2023-04-15T14:15:35;9;9;
79689;PMS5003;69156;55.932;-3.238;2023-04-15T14:18:00;9;8;
79689;PMS5003;69156;55.932;-3.238;2023-04-15T14:20:25;11;11;
79689;PMS5003;69156;55.932;-3.238;2023-04-15T14:22:50;12;12;
79689;PMS5003;69156;55.932;-3.238;2023-04-15T14:25:16;10;10;
79689;PMS5003;69156;55.932;-3.238;2023-04-15T14:27:42;11;11;
79689;PMS5003;69156;55.932;-3.238;2023-04-15T14:30:07;8;8;
79689;PMS5003;69156;55.932;-3.238;2023-04-15T14:32:33;9;9;
79689;PMS5003;69156;55.932;-3.238;2023-04-15T14:34:57;10;10;
79689;PMS5003;69156;55.932;-3.238;2023-04-15T14:37:23;11;9;
79689;PMS5003;69156;55.932;-3.238;2023-04-15T14:39:49;10;10;
79689;PMS5003;69156;55.932;-3.238;2023-04-15T14:42:15;12;12;
79689;PMS5003;69156;55.932;-3.238;2023-04-15T14:44:40;9;9;
79689;PMS5003;69156;55.932;-3.238;2023-04-15T14:47:06;11;11;
79689;PMS5003;69156;55.932;-3.238;2023-04-15T14:49:31;9;9;
79689;PMS5003;69156;55.932;-3.238;2023-04-15T14:51:56;12;11;
79689;PMS5003;69156;55.932;-3.238;2023-04-15T14:54:21;13;11;
79689;PMS5003;69156;55.932;-3.238;2023-04-15T14:56:47;9;8;
79689;PMS5003;69156;55.932;-3.238;2023-04-15T14:59:12;10;10;
79689;PMS5003;69156;55.932;-3.238;2023-04-15T15:01:38;12;12;
79689;PMS5003;69156;55.932;-3.238;2023-04-15T15:04:03;14;13;
79689;PMS5003;69156;55.932;-3.238;2023-04-15T15:06:29;13;13;
79689;PMS5003;69156;55.932;-3.238;2023-04-15T15:08:54;14;13;
79689;PMS5003;69156;55.932;-3.238;2023-04-15T15:11:19;21;21;
79689;PMS5003;69156;55.932;-3.238;2023-04-15T15:13:45;16;16;
79689;PMS5003;69156;55.932;-3.238;2023-04-15T15:16:11;19;18;
79689;PMS5003;69156;55.932;-3.238;2023-04-15T15:18:35;14;14;
79689;PMS5003;69156;55.932;-3.238;2023-04-15T15:21:00;18;16;
79689;PMS5003;69156;55.932;-3.238;2023-04-15T15:23:26;15;15;
79689;PMS5003;69156;55.932;-3.238;2023-04-15T15:25:51;14;13;
79689;PMS5003;69156;55.932;-3.238;2023-04-15T15:28:17;14;14;
79689;PMS5003;69156;55.932;-3.238;2023-04-15T15:30:42;14;14;
79689;PMS5003;69156;55.932;-3.238;2023-04-15T15:33:08;15;15;
79689;PMS5003;69156;55.932;-3.238;2023-04-15T15:35:34;18;16;
79689;PMS5003;69156;55.932;-3.238;2023-04-15T15:37:59;16;15;
79689;PMS5003;69156;55.932;-3.238;2023-04-15T15:40:25;19;18;
79689;PMS5003;69156;55.932;-3.238;2023-04-15T15:42:51;20;19;
79689;PMS5003;69156;55.932;-3.238;2023-04-15T15:45:17;17;17;
79689;PMS5003;69156;55.932;-3.238;2023-04-15T15:47:42;17;17;
79689;PMS5003;69156;55.932;-3.238;2023-04-15T15:50:09;20;19;
79689;PMS5003;69156;55.932;-3.238;2023-04-15T15:52:34;16;16;
79689;PMS5003;69156;55.932;-3.238;2023-04-15T15:54:59;18;17;
79689;PMS5003;69156;55.932;-3.238;2023-04-15T15:57:25;15;15;
79689;PMS5003;69156;55.932;-3.238;2023-04-15T15:59:50;19;18;
79689;PMS5003;69156;55.932;-3.238;2023-04-15T16:02:16;14;14;
79689;PMS5003;69156;55.932;-3.238;2023-04-15T16:04:41;18;18;
79689;PMS5003;69156;55.932;-3.238;2023-04-15T16:07:07;15;15;